sensor_id;sensor_type;location;lat;lon;timestamp;P1;durP1;ratioP1;P2;durP2;ratioP2
26060;SDS011;36331;51.378;0.018;2023-02-15T00:02:19;50.22;;;27.65;;
26060;SDS011;36331;51.378;0.018;2023-02-15T00:04:49;46.65;;;24.98;;
26060;SDS011;36331;51.378;0.018;2023-02-15T00:07:18;48.63;;;26.23;;
26060;SDS011;36331;51.378;0.018;2023-02-15T00:09:48;46.50;;;26.92;;
26060;SDS011;36331;51.378;0.018;2023-02-15T00:12:17;61.13;;;30.25;;
26060;SDS011;36331;51.378;0.018;2023-02-15T00:14:48;54.03;;;29.50;;
26060;SDS011;36331;51.378;0.018;2023-02-15T00:17:18;56.38;;;27.35;;
26060;SDS011;36331;51.378;0.018;2023-02-15T00:19:50;63.65;;;33.13;;
26060;SDS011;36331;51.378;0.018;2023-02-15T00:22:20;54.65;;;29.52;;
26060;SDS011;36331;51.378;0.018;2023-02-15T00:24:50;56.03;;;29.92;;
26060;SDS011;36331;51.378;0.018;2023-02-15T00:27:19;55.20;;;31.08;;
26060;SDS011;36331;51.378;0.018;2023-02-15T00:29:50;49.95;;;30.85;;
26060;SDS011;36331;51.378;0.018;2023-02-15T00:32:20;53.15;;;30.88;;
26060;SDS011;36331;51.378;0.018;2023-02-15T00:34:50;59.15;;;33.38;;
26060;SDS011;36331;51.378;0.018;2023-02-15T00:37:19;55.75;;;32.10;;
26060;SDS011;36331;51.378;0.018;2023-02-15T00:39:48;59.53;;;31.95;;
26060;SDS011;36331;51.378;0.018;2023-02-15T00:42:17;57.60;;;31.15;;
26060;SDS011;36331;51.378;0.018;2023-02-15T00:44:46;62.47;;;31.27;;
26060;SDS011;36331;51.378;0.018;2023-02-15T00:47:16;53.80;;;31.25;;
26060;SDS011;36331;51.378;0.018;2023-02-15T00:49:45;60.40;;;29.55;;
26060;SDS011;36331;51.378;0.018;2023-02-15T00:52:14;55.67;;;30.88;;
26060;SDS011;36331;51.378;0.018;2023-02-15T00:54:44;56.40;;;32.38;;
26060;SDS011;36331;51.378;0.018;2023-02-15T00:57:13;53.22;;;29.13;;
26060;SDS011;36331;51.378;0.018;2023-02-15T01:02:14;53.08;;;28.60;;
26060;SDS011;36331;51.378;0.018;2023-02-15T01:04:47;53.78;;;29.30;;
26060;SDS011;36331;51.378;0.018;2023-02-15T01:07:16;52.70;;;30.55;;
26060;SDS011;36331;51.378;0.018;2023-02-15T01:09:46;60.28;;;30.92;;
26060;SDS011;36331;51.378;0.018;2023-02-15T01:12:15;55.90;;;32.55;;
26060;SDS011;36331;51.378;0.018;2023-02-15T01:14:47;55.10;;;32.10;;
26060;SDS011;36331;51.378;0.018;2023-02-15T01:17:17;53.40;;;30.95;;
26060;SDS011;36331;51.378;0.018;2023-02-15T01:19:48;60.00;;;29.65;;
26060;SDS011;36331;51.378;0.018;2023-02-15T01:22:18;55.83;;;29.42;;
26060;SDS011;36331;51.378;0.018;2023-02-15T01:24:49;51.97;;;27.65;;
26060;SDS011;36331;51.378;0.018;2023-02-15T01:27:18;57.53;;;31.48;;
26060;SDS011;36331;51.378;0.018;2023-02-15T01:29:49;62.10;;;32.50;;
26060;SDS011;36331;51.378;0.018;2023-02-15T01:32:18;57.67;;;32.35;;
26060;SDS011;36331;51.378;0.018;2023-02-15T01:34:49;56.67;;;29.35;;
26060;SDS011;36331;51.378;0.018;2023-02-15T01:37:19;58.90;;;29.88;;
26060;SDS011;36331;51.378;0.018;2023-02-15T01:39:48;54.33;;;28.60;;
26060;SDS011;36331;51.378;0.018;2023-02-15T01:42:20;55.28;;;30.15;;
26060;SDS011;36331;51.378;0.018;2023-02-15T01:44:51;55.53;;;30.02;;
26060;SDS011;36331;51.378;0.018;2023-02-15T01:47:22;51.90;;;29.17;;
26060;SDS011;36331;51.378;0.018;2023-02-15T01:49:58;53.75;;;28.88;;
26060;SDS011;36331;51.378;0.018;2023-02-15T01:52:28;55.15;;;30.80;;
26060;SDS011;36331;51.378;0.018;2023-02-15T01:54:58;53.22;;;28.77;;
26060;SDS011;36331;51.378;0.018;2023-02-15T01:57:29;49.58;;;28.25;;
26060;SDS011;36331;51.378;0.018;2023-02-15T01:59:58;51.03;;;28.48;;
26060;SDS011;36331;51.378;0.018;2023-02-15T02:02:38;58.80;;;32.33;;
26060;SDS011;36331;51.378;0.018;2023-02-15T02:05:09;55.20;;;29.35;;
26060;SDS011;36331;51.378;0.018;2023-02-15T02:07:39;54.60;;;30.90;;
26060;SDS011;36331;51.378;0.018;2023-02-15T02:10:11;55.35;;;29.27;;
26060;SDS011;36331;51.378;0.018;2023-02-15T02:12:40;54.47;;;29.35;;
26060;SDS011;36331;51.378;0.018;2023-02-15T02:15:10;54.75;;;29.75;;
26060;SDS011;36331;51.378;0.018;2023-02-15T02:17:42;57.95;;;31.02;;
26060;SDS011;36331;51.378;0.018;2023-02-15T02:20:28;51.30;;;28.83;;
26060;SDS011;36331;51.378;0.018;2023-02-15T02:25:51;49.10;;;27.75;;
26060;SDS011;36331;51.378;0.018;2023-02-15T02:28:35;47.78;;;27.33;;
26060;SDS011;36331;51.378;0.018;2023-02-15T02:31:18;53.90;;;29.95;;
26060;SDS011;36331;51.378;0.018;2023-02-15T02:33:55;64.00;;;32.22;;
26060;SDS011;36331;51.378;0.018;2023-02-15T02:36:29;54.85;;;30.58;;
26060;SDS011;36331;51.378;0.018;2023-02-15T02:39:10;55.35;;;30.20;;
26060;SDS011;36331;51.378;0.018;2023-02-15T02:41:44;58.10;;;30.05;;
26060;SDS011;36331;51.378;0.018;2023-02-15T02:44:16;51.17;;;28.90;;
26060;SDS011;36331;51.378;0.018;2023-02-15T02:46:48;49.10;;;28.35;;
26060;SDS011;36331;51.378;0.018;2023-02-15T02:49:31;53.25;;;29.92;;
26060;SDS011;36331;51.378;0.018;2023-02-15T02:52:02;53.93;;;28.97;;
26060;SDS011;36331;51.378;0.018;2023-02-15T02:54:32;51.20;;;28.77;;
26060;SDS011;36331;51.378;0.018;2023-02-15T02:57:05;50.08;;;29.05;;
26060;SDS011;36331;51.378;0.018;2023-02-15T03:02:05;49.30;;;28.15;;
26060;SDS011;36331;51.378;0.018;2023-02-15T03:04:42;58.97;;;31.55;;
26060;SDS011;36331;51.378;0.018;2023-02-15T03:07:14;56.35;;;31.17;;
26060;SDS011;36331;51.378;0.018;2023-02-15T03:09:50;51.47;;;29.63;;
26060;SDS011;36331;51.378;0.018;2023-02-15T03:12:20;51.13;;;28.23;;
26060;SDS011;36331;51.378;0.018;2023-02-15T03:14:53;53.38;;;30.65;;
26060;SDS011;36331;51.378;0.018;2023-02-15T03:17:23;50.42;;;28.67;;
26060;SDS011;36331;51.378;0.018;2023-02-15T03:19:57;54.47;;;30.40;;
26060;SDS011;36331;51.378;0.018;2023-02-15T03:22:29;49.85;;;28.70;;
26060;SDS011;36331;51.378;0.018;2023-02-15T03:25:01;51.90;;;27.75;;
26060;SDS011;36331;51.378;0.018;2023-02-15T03:30:01;51.10;;;27.95;;
26060;SDS011;36331;51.378;0.018;2023-02-15T03:32:31;59.60;;;30.30;;
26060;SDS011;36331;51.378;0.018;2023-02-15T03:35:02;57.88;;;31.20;;
26060;SDS011;36331;51.378;0.018;2023-02-15T03:37:32;51.33;;;28.38;;
26060;SDS011;36331;51.378;0.018;2023-02-15T03:40:05;50.58;;;29.08;;
26060;SDS011;36331;51.378;0.018;2023-02-15T03:42:51;49.85;;;30.00;;
26060;SDS011;36331;51.378;0.018;2023-02-15T03:45:22;50.03;;;27.60;;
26060;SDS011;36331;51.378;0.018;2023-02-15T03:50:24;59.22;;;30.83;;
26060;SDS011;36331;51.378;0.018;2023-02-15T03:53:14;54.75;;;28.88;;
26060;SDS011;36331;51.378;0.018;2023-02-15T03:55:45;53.58;;;28.05;;
26060;SDS011;36331;51.378;0.018;2023-02-15T03:58:15;59.20;;;32.15;;
26060;SDS011;36331;51.378;0.018;2023-02-15T04:01:13;57.78;;;31.23;;
26060;SDS011;36331;51.378;0.018;2023-02-15T04:04:07;62.17;;;34.63;;
26060;SDS011;36331;51.378;0.018;2023-02-15T04:06:40;59.05;;;31.95;;
26060;SDS011;36331;51.378;0.018;2023-02-15T04:09:09;74.17;;;37.70;;
26060;SDS011;36331;51.378;0.018;2023-02-15T04:11:57;82.75;;;40.55;;
26060;SDS011;36331;51.378;0.018;2023-02-15T04:14:26;84.45;;;40.28;;
26060;SDS011;36331;51.378;0.018;2023-02-15T04:17:13;92.55;;;42.60;;
26060;SDS011;36331;51.378;0.018;2023-02-15T04:19:42;86.85;;;44.05;;
26060;SDS011;36331;51.378;0.018;2023-02-15T04:22:31;87.57;;;43.65;;
26060;SDS011;36331;51.378;0.018;2023-02-15T04:25:21;103.53;;;44.75;;
26060;SDS011;36331;51.378;0.018;2023-02-15T04:27:51;94.32;;;46.50;;
26060;SDS011;36331;51.378;0.018;2023-02-15T04:30:21;94.78;;;47.33;;
26060;SDS011;36331;51.378;0.018;2023-02-15T04:32:51;92.55;;;44.83;;
26060;SDS011;36331;51.378;0.018;2023-02-15T04:35:20;103.97;;;49.28;;
26060;SDS011;36331;51.378;0.018;2023-02-15T04:37:51;104.85;;;48.50;;
26060;SDS011;36331;51.378;0.018;2023-02-15T04:40:20;96.15;;;48.78;;
26060;SDS011;36331;51.378;0.018;2023-02-15T04:42:49;110.38;;;49.47;;
26060;SDS011;36331;51.378;0.018;2023-02-15T04:45:19;103.57;;;50.88;;
26060;SDS011;36331;51.378;0.018;2023-02-15T04:47:48;87.65;;;45.83;;
26060;SDS011;36331;51.378;0.018;2023-02-15T04:50:17;100.38;;;45.95;;
26060;SDS011;36331;51.378;0.018;2023-02-15T04:52:46;102.95;;;46.95;;
26060;SDS011;36331;51.378;0.018;2023-02-15T04:55:17;102.97;;;49.30;;
26060;SDS011;36331;51.378;0.018;2023-02-15T04:57:46;87.60;;;46.03;;
26060;SDS011;36331;51.378;0.018;2023-02-15T05:00:15;98.63;;;49.00;;
26060;SDS011;36331;51.378;0.018;2023-02-15T05:02:44;105.90;;;48.58;;
26060;SDS011;36331;51.378;0.018;2023-02-15T05:05:13;97.93;;;49.50;;
26060;SDS011;36331;51.378;0.018;2023-02-15T05:07:43;102.78;;;49.47;;
26060;SDS011;36331;51.378;0.018;2023-02-15T05:10:12;96.93;;;49.25;;
26060;SDS011;36331;51.378;0.018;2023-02-15T05:12:42;94.13;;;47.88;;
26060;SDS011;36331;51.378;0.018;2023-02-15T05:15:11;95.05;;;45.33;;
26060;SDS011;36331;51.378;0.018;2023-02-15T05:17:41;104.53;;;52.88;;
26060;SDS011;36331;51.378;0.018;2023-02-15T05:20:10;99.07;;;50.05;;
26060;SDS011;36331;51.378;0.018;2023-02-15T05:25:35;97.60;;;48.90;;
26060;SDS011;36331;51.378;0.018;2023-02-15T05:28:26;95.75;;;47.78;;
26060;SDS011;36331;51.378;0.018;2023-02-15T05:30:59;97.50;;;47.67;;
26060;SDS011;36331;51.378;0.018;2023-02-15T05:33:30;96.75;;;46.72;;
26060;SDS011;36331;51.378;0.018;2023-02-15T05:35:59;91.45;;;45.92;;
26060;SDS011;36331;51.378;0.018;2023-02-15T05:38:29;98.22;;;49.22;;
26060;SDS011;36331;51.378;0.018;2023-02-15T05:40:59;93.22;;;44.58;;
26060;SDS011;36331;51.378;0.018;2023-02-15T05:43:30;91.65;;;46.92;;
26060;SDS011;36331;51.378;0.018;2023-02-15T05:46:00;92.72;;;46.22;;
26060;SDS011;36331;51.378;0.018;2023-02-15T05:48:31;78.13;;;43.20;;
26060;SDS011;36331;51.378;0.018;2023-02-15T05:51:02;85.43;;;44.15;;
26060;SDS011;36331;51.378;0.018;2023-02-15T05:53:32;87.60;;;46.85;;
26060;SDS011;36331;51.378;0.018;2023-02-15T05:56:02;85.85;;;43.03;;
26060;SDS011;36331;51.378;0.018;2023-02-15T05:58:34;84.38;;;42.70;;
26060;SDS011;36331;51.378;0.018;2023-02-15T06:01:07;79.63;;;41.97;;
26060;SDS011;36331;51.378;0.018;2023-02-15T06:03:37;84.57;;;42.70;;
26060;SDS011;36331;51.378;0.018;2023-02-15T06:06:07;78.97;;;40.13;;
26060;SDS011;36331;51.378;0.018;2023-02-15T06:08:36;79.50;;;41.03;;
26060;SDS011;36331;51.378;0.018;2023-02-15T06:11:05;83.95;;;43.10;;
26060;SDS011;36331;51.378;0.018;2023-02-15T06:13:36;82.60;;;41.08;;
26060;SDS011;36331;51.378;0.018;2023-02-15T06:16:06;78.43;;;40.05;;
26060;SDS011;36331;51.378;0.018;2023-02-15T06:18:35;79.10;;;40.90;;
26060;SDS011;36331;51.378;0.018;2023-02-15T06:21:04;76.10;;;40.22;;
26060;SDS011;36331;51.378;0.018;2023-02-15T06:23:33;76.10;;;40.25;;
26060;SDS011;36331;51.378;0.018;2023-02-15T06:26:02;75.65;;;41.65;;
26060;SDS011;36331;51.378;0.018;2023-02-15T06:28:31;75.30;;;41.05;;
26060;SDS011;36331;51.378;0.018;2023-02-15T06:31:01;67.80;;;38.40;;
26060;SDS011;36331;51.378;0.018;2023-02-15T06:33:31;77.93;;;40.05;;
26060;SDS011;36331;51.378;0.018;2023-02-15T06:36:00;78.15;;;39.53;;
26060;SDS011;36331;51.378;0.018;2023-02-15T06:38:30;74.63;;;38.58;;
26060;SDS011;36331;51.378;0.018;2023-02-15T06:41:00;71.47;;;41.08;;
26060;SDS011;36331;51.378;0.018;2023-02-15T06:43:29;75.00;;;37.92;;
26060;SDS011;36331;51.378;0.018;2023-02-15T06:45:58;68.97;;;38.75;;
26060;SDS011;36331;51.378;0.018;2023-02-15T06:48:29;70.35;;;37.78;;
26060;SDS011;36331;51.378;0.018;2023-02-15T06:50:58;66.50;;;38.85;;
26060;SDS011;36331;51.378;0.018;2023-02-15T06:53:27;67.35;;;38.47;;
26060;SDS011;36331;51.378;0.018;2023-02-15T06:55:59;71.38;;;37.15;;
26060;SDS011;36331;51.378;0.018;2023-02-15T06:58:29;69.05;;;37.53;;
26060;SDS011;36331;51.378;0.018;2023-02-15T07:00:59;74.15;;;40.17;;
26060;SDS011;36331;51.378;0.018;2023-02-15T07:03:29;70.97;;;37.53;;
26060;SDS011;36331;51.378;0.018;2023-02-15T07:05:59;71.20;;;37.47;;
26060;SDS011;36331;51.378;0.018;2023-02-15T07:08:29;74.95;;;37.78;;
26060;SDS011;36331;51.378;0.018;2023-02-15T07:11:00;69.53;;;35.60;;
26060;SDS011;36331;51.378;0.018;2023-02-15T07:13:43;73.22;;;36.65;;
26060;SDS011;36331;51.378;0.018;2023-02-15T07:16:12;69.10;;;37.28;;
26060;SDS011;36331;51.378;0.018;2023-02-15T07:18:43;69.45;;;37.85;;
26060;SDS011;36331;51.378;0.018;2023-02-15T07:21:12;73.68;;;41.58;;
26060;SDS011;36331;51.378;0.018;2023-02-15T07:23:41;82.47;;;39.92;;
26060;SDS011;36331;51.378;0.018;2023-02-15T07:26:10;79.07;;;38.35;;
26060;SDS011;36331;51.378;0.018;2023-02-15T07:28:40;73.10;;;37.90;;
26060;SDS011;36331;51.378;0.018;2023-02-15T07:31:12;77.70;;;42.08;;
26060;SDS011;36331;51.378;0.018;2023-02-15T07:33:42;72.68;;;38.58;;
26060;SDS011;36331;51.378;0.018;2023-02-15T07:36:12;73.47;;;40.17;;
26060;SDS011;36331;51.378;0.018;2023-02-15T07:38:41;75.25;;;39.47;;
26060;SDS011;36331;51.378;0.018;2023-02-15T07:41:12;71.57;;;38.90;;
26060;SDS011;36331;51.378;0.018;2023-02-15T07:43:42;74.22;;;40.10;;
26060;SDS011;36331;51.378;0.018;2023-02-15T07:46:13;75.53;;;37.10;;
26060;SDS011;36331;51.378;0.018;2023-02-15T07:48:45;73.75;;;40.47;;
26060;SDS011;36331;51.378;0.018;2023-02-15T07:51:15;74.63;;;38.42;;
26060;SDS011;36331;51.378;0.018;2023-02-15T07:53:44;64.93;;;38.47;;
26060;SDS011;36331;51.378;0.018;2023-02-15T07:56:15;76.70;;;40.03;;
26060;SDS011;36331;51.378;0.018;2023-02-15T07:58:44;66.15;;;36.53;;
26060;SDS011;36331;51.378;0.018;2023-02-15T08:01:22;73.45;;;38.50;;
26060;SDS011;36331;51.378;0.018;2023-02-15T08:03:53;69.13;;;36.50;;
26060;SDS011;36331;51.378;0.018;2023-02-15T08:06:24;64.95;;;36.83;;
26060;SDS011;36331;51.378;0.018;2023-02-15T08:08:54;61.03;;;34.25;;
26060;SDS011;36331;51.378;0.018;2023-02-15T08:11:24;57.95;;;33.25;;
26060;SDS011;36331;51.378;0.018;2023-02-15T08:13:56;63.47;;;34.85;;
26060;SDS011;36331;51.378;0.018;2023-02-15T08:16:28;57.58;;;33.63;;
26060;SDS011;36331;51.378;0.018;2023-02-15T08:19:00;61.13;;;34.47;;
26060;SDS011;36331;51.378;0.018;2023-02-15T08:21:30;53.78;;;32.05;;
26060;SDS011;36331;51.378;0.018;2023-02-15T08:24:00;56.00;;;32.33;;
26060;SDS011;36331;51.378;0.018;2023-02-15T08:26:30;55.42;;;32.50;;
26060;SDS011;36331;51.378;0.018;2023-02-15T08:28:59;57.15;;;32.78;;
26060;SDS011;36331;51.378;0.018;2023-02-15T08:31:29;57.35;;;32.72;;
26060;SDS011;36331;51.378;0.018;2023-02-15T08:34:00;58.22;;;33.42;;
26060;SDS011;36331;51.378;0.018;2023-02-15T08:36:29;52.20;;;30.67;;
26060;SDS011;36331;51.378;0.018;2023-02-15T08:38:59;49.47;;;28.45;;
26060;SDS011;36331;51.378;0.018;2023-02-15T08:41:29;51.90;;;30.08;;
26060;SDS011;36331;51.378;0.018;2023-02-15T08:43:59;50.90;;;30.52;;
26060;SDS011;36331;51.378;0.018;2023-02-15T08:46:30;51.58;;;30.98;;
26060;SDS011;36331;51.378;0.018;2023-02-15T08:49:01;53.78;;;30.08;;
26060;SDS011;36331;51.378;0.018;2023-02-15T08:51:30;52.65;;;28.45;;
26060;SDS011;36331;51.378;0.018;2023-02-15T08:54:01;50.38;;;28.38;;
26060;SDS011;36331;51.378;0.018;2023-02-15T08:56:32;50.60;;;28.90;;
26060;SDS011;36331;51.378;0.018;2023-02-15T08:59:02;50.42;;;28.52;;
26060;SDS011;36331;51.378;0.018;2023-02-15T09:01:32;44.85;;;27.27;;
26060;SDS011;36331;51.378;0.018;2023-02-15T09:04:04;46.17;;;26.13;;
26060;SDS011;36331;51.378;0.018;2023-02-15T09:06:36;52.58;;;29.88;;
26060;SDS011;36331;51.378;0.018;2023-02-15T09:09:06;48.22;;;26.88;;
26060;SDS011;36331;51.378;0.018;2023-02-15T09:11:36;40.83;;;26.02;;
26060;SDS011;36331;51.378;0.018;2023-02-15T09:14:06;39.42;;;24.40;;
26060;SDS011;36331;51.378;0.018;2023-02-15T09:16:37;42.92;;;25.73;;
26060;SDS011;36331;51.378;0.018;2023-02-15T09:19:07;43.67;;;25.88;;
26060;SDS011;36331;51.378;0.018;2023-02-15T09:21:37;44.17;;;23.98;;
26060;SDS011;36331;51.378;0.018;2023-02-15T09:24:08;38.45;;;23.52;;
26060;SDS011;36331;51.378;0.018;2023-02-15T09:26:38;39.63;;;23.23;;
26060;SDS011;36331;51.378;0.018;2023-02-15T09:29:08;37.55;;;22.33;;
26060;SDS011;36331;51.378;0.018;2023-02-15T09:31:41;37.00;;;22.33;;
26060;SDS011;36331;51.378;0.018;2023-02-15T09:34:13;34.90;;;21.77;;
26060;SDS011;36331;51.378;0.018;2023-02-15T09:39:12;31.55;;;20.42;;
26060;SDS011;36331;51.378;0.018;2023-02-15T09:41:56;33.80;;;20.77;;
26060;SDS011;36331;51.378;0.018;2023-02-15T09:44:33;32.45;;;19.70;;
26060;SDS011;36331;51.378;0.018;2023-02-15T09:47:13;31.15;;;21.13;;
26060;SDS011;36331;51.378;0.018;2023-02-15T09:49:50;36.63;;;20.25;;
26060;SDS011;36331;51.378;0.018;2023-02-15T09:52:31;30.98;;;19.48;;
26060;SDS011;36331;51.378;0.018;2023-02-15T09:55:07;30.10;;;18.65;;
26060;SDS011;36331;51.378;0.018;2023-02-15T09:57:42;25.80;;;17.52;;
26060;SDS011;36331;51.378;0.018;2023-02-15T10:00:15;30.25;;;20.08;;
26060;SDS011;36331;51.378;0.018;2023-02-15T10:02:54;32.97;;;20.10;;
26060;SDS011;36331;51.378;0.018;2023-02-15T10:05:31;31.42;;;19.92;;
26060;SDS011;36331;51.378;0.018;2023-02-15T10:08:09;32.95;;;21.73;;
26060;SDS011;36331;51.378;0.018;2023-02-15T10:10:41;29.20;;;19.05;;
26060;SDS011;36331;51.378;0.018;2023-02-15T10:13:18;30.13;;;18.85;;
26060;SDS011;36331;51.378;0.018;2023-02-15T10:15:53;29.05;;;18.10;;
26060;SDS011;36331;51.378;0.018;2023-02-15T10:18:48;27.05;;;17.00;;
26060;SDS011;36331;51.378;0.018;2023-02-15T10:21:25;27.35;;;17.33;;
26060;SDS011;36331;51.378;0.018;2023-02-15T10:24:02;26.75;;;18.25;;
26060;SDS011;36331;51.378;0.018;2023-02-15T10:26:36;26.42;;;18.40;;
26060;SDS011;36331;51.378;0.018;2023-02-15T10:29:11;29.55;;;17.15;;
26060;SDS011;36331;51.378;0.018;2023-02-15T10:31:46;28.23;;;17.20;;
26060;SDS011;36331;51.378;0.018;2023-02-15T10:34:18;24.58;;;15.63;;
26060;SDS011;36331;51.378;0.018;2023-02-15T10:37:01;25.52;;;14.77;;
26060;SDS011;36331;51.378;0.018;2023-02-15T10:39:38;25.23;;;15.60;;
26060;SDS011;36331;51.378;0.018;2023-02-15T10:42:11;22.08;;;14.68;;
26060;SDS011;36331;51.378;0.018;2023-02-15T10:44:48;25.58;;;15.13;;
26060;SDS011;36331;51.378;0.018;2023-02-15T10:47:31;23.50;;;14.60;;
26060;SDS011;36331;51.378;0.018;2023-02-15T10:50:06;25.42;;;15.23;;
26060;SDS011;36331;51.378;0.018;2023-02-15T10:52:42;23.60;;;14.77;;
26060;SDS011;36331;51.378;0.018;2023-02-15T10:55:17;24.65;;;15.23;;
26060;SDS011;36331;51.378;0.018;2023-02-15T10:57:51;21.17;;;14.60;;
26060;SDS011;36331;51.378;0.018;2023-02-15T11:00:27;22.05;;;14.05;;
26060;SDS011;36331;51.378;0.018;2023-02-15T11:03:04;23.42;;;15.25;;
26060;SDS011;36331;51.378;0.018;2023-02-15T11:05:41;18.95;;;13.07;;
26060;SDS011;36331;51.378;0.018;2023-02-15T11:08:15;19.75;;;12.63;;
26060;SDS011;36331;51.378;0.018;2023-02-15T11:10:46;15.52;;;11.88;;
26060;SDS011;36331;51.378;0.018;2023-02-15T11:13:18;20.65;;;13.48;;
26060;SDS011;36331;51.378;0.018;2023-02-15T11:15:50;20.55;;;13.80;;
26060;SDS011;36331;51.378;0.018;2023-02-15T11:18:23;20.20;;;12.68;;
26060;SDS011;36331;51.378;0.018;2023-02-15T11:20:55;20.40;;;12.65;;
26060;SDS011;36331;51.378;0.018;2023-02-15T11:23:26;18.98;;;12.13;;
26060;SDS011;36331;51.378;0.018;2023-02-15T11:25:56;20.65;;;12.68;;
26060;SDS011;36331;51.378;0.018;2023-02-15T11:28:28;20.23;;;12.48;;
26060;SDS011;36331;51.378;0.018;2023-02-15T11:31:00;18.25;;;12.60;;
26060;SDS011;36331;51.378;0.018;2023-02-15T11:33:35;21.08;;;11.65;;
26060;SDS011;36331;51.378;0.018;2023-02-15T11:36:07;27.83;;;14.02;;
26060;SDS011;36331;51.378;0.018;2023-02-15T11:38:40;20.15;;;12.07;;
26060;SDS011;36331;51.378;0.018;2023-02-15T11:41:11;20.50;;;12.50;;
26060;SDS011;36331;51.378;0.018;2023-02-15T11:43:41;17.98;;;11.40;;
26060;SDS011;36331;51.378;0.018;2023-02-15T11:46:12;17.67;;;11.15;;
26060;SDS011;36331;51.378;0.018;2023-02-15T11:48:42;21.45;;;12.85;;
26060;SDS011;36331;51.378;0.018;2023-02-15T11:51:12;24.95;;;12.88;;
26060;SDS011;36331;51.378;0.018;2023-02-15T11:53:44;21.60;;;12.27;;
26060;SDS011;36331;51.378;0.018;2023-02-15T11:56:14;20.87;;;10.83;;
26060;SDS011;36331;51.378;0.018;2023-02-15T11:58:45;14.20;;;11.05;;
26060;SDS011;36331;51.378;0.018;2023-02-15T12:01:17;16.70;;;9.95;;
26060;SDS011;36331;51.378;0.018;2023-02-15T12:03:50;16.83;;;11.07;;
26060;SDS011;36331;51.378;0.018;2023-02-15T12:06:22;16.75;;;11.68;;
26060;SDS011;36331;51.378;0.018;2023-02-15T12:08:55;17.50;;;11.25;;
26060;SDS011;36331;51.378;0.018;2023-02-15T12:11:28;16.70;;;11.77;;
26060;SDS011;36331;51.378;0.018;2023-02-15T12:14:00;15.48;;;10.70;;
26060;SDS011;36331;51.378;0.018;2023-02-15T12:16:31;18.52;;;10.98;;
26060;SDS011;36331;51.378;0.018;2023-02-15T12:19:01;16.25;;;10.75;;
26060;SDS011;36331;51.378;0.018;2023-02-15T12:21:31;15.27;;;10.07;;
26060;SDS011;36331;51.378;0.018;2023-02-15T12:24:03;18.85;;;9.85;;
26060;SDS011;36331;51.378;0.018;2023-02-15T12:26:34;13.77;;;9.57;;
26060;SDS011;36331;51.378;0.018;2023-02-15T12:29:06;14.13;;;9.63;;
26060;SDS011;36331;51.378;0.018;2023-02-15T12:31:36;16.67;;;10.90;;
26060;SDS011;36331;51.378;0.018;2023-02-15T12:34:09;19.08;;;9.65;;
26060;SDS011;36331;51.378;0.018;2023-02-15T12:36:40;15.05;;;10.35;;
26060;SDS011;36331;51.378;0.018;2023-02-15T12:39:22;15.68;;;9.73;;
26060;SDS011;36331;51.378;0.018;2023-02-15T12:41:59;16.75;;;9.45;;
26060;SDS011;36331;51.378;0.018;2023-02-15T12:44:30;16.45;;;9.63;;
26060;SDS011;36331;51.378;0.018;2023-02-15T12:47:00;15.30;;;9.90;;
26060;SDS011;36331;51.378;0.018;2023-02-15T12:49:31;11.93;;;8.85;;
26060;SDS011;36331;51.378;0.018;2023-02-15T12:52:02;15.80;;;9.48;;
26060;SDS011;36331;51.378;0.018;2023-02-15T12:54:36;11.15;;;9.15;;
26060;SDS011;36331;51.378;0.018;2023-02-15T12:57:14;14.82;;;10.10;;
26060;SDS011;36331;51.378;0.018;2023-02-15T12:59:47;11.30;;;8.48;;
26060;SDS011;36331;51.378;0.018;2023-02-15T13:02:19;15.93;;;9.68;;
26060;SDS011;36331;51.378;0.018;2023-02-15T13:04:50;14.20;;;8.75;;
26060;SDS011;36331;51.378;0.018;2023-02-15T13:07:20;11.75;;;8.27;;
26060;SDS011;36331;51.378;0.018;2023-02-15T13:09:51;15.55;;;8.52;;
26060;SDS011;36331;51.378;0.018;2023-02-15T13:12:21;12.95;;;9.20;;
26060;SDS011;36331;51.378;0.018;2023-02-15T13:14:51;21.23;;;9.27;;
26060;SDS011;36331;51.378;0.018;2023-02-15T13:17:23;14.00;;;8.63;;
26060;SDS011;36331;51.378;0.018;2023-02-15T13:19:56;14.18;;;8.50;;
26060;SDS011;36331;51.378;0.018;2023-02-15T13:22:27;16.30;;;8.85;;
26060;SDS011;36331;51.378;0.018;2023-02-15T13:25:03;12.85;;;8.77;;
26060;SDS011;36331;51.378;0.018;2023-02-15T13:27:35;15.98;;;7.70;;
26060;SDS011;36331;51.378;0.018;2023-02-15T13:30:10;19.15;;;9.20;;
26060;SDS011;36331;51.378;0.018;2023-02-15T13:32:43;16.52;;;8.25;;
26060;SDS011;36331;51.378;0.018;2023-02-15T13:35:13;15.50;;;9.15;;
26060;SDS011;36331;51.378;0.018;2023-02-15T13:37:57;11.77;;;8.02;;
26060;SDS011;36331;51.378;0.018;2023-02-15T13:40:33;12.85;;;7.90;;
26060;SDS011;36331;51.378;0.018;2023-02-15T13:43:11;12.75;;;8.75;;
26060;SDS011;36331;51.378;0.018;2023-02-15T13:45:48;12.90;;;8.18;;
26060;SDS011;36331;51.378;0.018;2023-02-15T13:48:24;11.70;;;6.82;;
26060;SDS011;36331;51.378;0.018;2023-02-15T13:51:17;12.40;;;6.93;;
26060;SDS011;36331;51.378;0.018;2023-02-15T13:53:54;11.40;;;6.63;;
26060;SDS011;36331;51.378;0.018;2023-02-15T13:56:28;12.20;;;6.85;;
26060;SDS011;36331;51.378;0.018;2023-02-15T13:59:05;12.48;;;7.15;;
26060;SDS011;36331;51.378;0.018;2023-02-15T14:01:43;12.52;;;7.72;;
26060;SDS011;36331;51.378;0.018;2023-02-15T14:07:13;10.60;;;6.00;;
26060;SDS011;36331;51.378;0.018;2023-02-15T14:09:47;10.55;;;6.80;;
26060;SDS011;36331;51.378;0.018;2023-02-15T14:12:29;13.15;;;7.50;;
26060;SDS011;36331;51.378;0.018;2023-02-15T14:15:05;7.70;;;6.40;;
26060;SDS011;36331;51.378;0.018;2023-02-15T14:17:40;13.73;;;6.75;;
26060;SDS011;36331;51.378;0.018;2023-02-15T14:20:17;12.57;;;6.90;;
26060;SDS011;36331;51.378;0.018;2023-02-15T14:22:49;13.05;;;7.38;;
26060;SDS011;36331;51.378;0.018;2023-02-15T14:25:24;15.40;;;7.68;;
26060;SDS011;36331;51.378;0.018;2023-02-15T14:27:59;13.75;;;7.05;;
26060;SDS011;36331;51.378;0.018;2023-02-15T14:30:30;11.13;;;6.05;;
26060;SDS011;36331;51.378;0.018;2023-02-15T14:33:02;9.90;;;6.90;;
26060;SDS011;36331;51.378;0.018;2023-02-15T14:35:33;14.70;;;7.20;;
26060;SDS011;36331;51.378;0.018;2023-02-15T14:38:05;10.73;;;6.45;;
26060;SDS011;36331;51.378;0.018;2023-02-15T14:40:38;13.38;;;7.07;;
26060;SDS011;36331;51.378;0.018;2023-02-15T14:43:31;11.30;;;6.22;;
26060;SDS011;36331;51.378;0.018;2023-02-15T14:46:06;11.23;;;6.20;;
26060;SDS011;36331;51.378;0.018;2023-02-15T14:48:37;11.85;;;6.75;;
26060;SDS011;36331;51.378;0.018;2023-02-15T14:51:25;9.15;;;5.72;;
26060;SDS011;36331;51.378;0.018;2023-02-15T14:59:46;10.40;;;5.70;;
26060;SDS011;36331;51.378;0.018;2023-02-15T15:02:16;10.20;;;5.28;;
26060;SDS011;36331;51.378;0.018;2023-02-15T15:04:55;10.30;;;6.80;;
26060;SDS011;36331;51.378;0.018;2023-02-15T15:07:25;12.25;;;6.70;;
26060;SDS011;36331;51.378;0.018;2023-02-15T15:09:59;16.90;;;8.05;;
26060;SDS011;36331;51.378;0.018;2023-02-15T15:12:37;14.48;;;7.82;;
26060;SDS011;36331;51.378;0.018;2023-02-15T15:15:09;12.30;;;6.95;;
26060;SDS011;36331;51.378;0.018;2023-02-15T15:17:53;11.85;;;6.70;;
26060;SDS011;36331;51.378;0.018;2023-02-15T15:20:42;12.55;;;6.28;;
26060;SDS011;36331;51.378;0.018;2023-02-15T15:26:20;12.63;;;6.00;;